Time;durP1;ratioP1;P1;durP2;ratioP2;P2;SDS_P1;SDS_P2;PMS_P1;PMS_P2;Temp;Humidity;BMP_temperature;BMP_pressure;BME280_temperature;BME280_humidity;BME280_pressure;Samples;Min_cycle;Max_cycle;Signal;HPM_P1;HPM_P2
2022/07/29 00:00:01;;;;;;;11.43;6.03;;;;;;;;;;3355316;42;20080;-56
2022/07/29 00:02:27;;;;;;;12.17;5.80;;;;;;;;;;3353177;42;20122;-57
2022/07/29 00:04:53;;;;;;;12.85;6.50;;;;;;;;;;3354676;42;20093;-57
2022/07/29 00:07:19;;;;;;;12.85;6.20;;;;;;;;;;3346561;42;20099;-58
2022/07/29 00:09:45;;;;;;;12.27;6.70;;;;;;;;;;3355243;42;20555;-58
2022/07/29 00:12:11;;;;;;;12.40;6.60;;;;;;;;;;3352648;42;20151;-59
2022/07/29 00:14:37;;;;;;;13.30;6.50;;;;;;;;;;3343336;42;20096;-58
2022/07/29 00:17:03;;;;;;;11.10;5.80;;;;;;;;;;3344366;42;20590;-58
2022/07/29 00:19:29;;;;;;;11.77;6.43;;;;;;;;;;3354196;42;20120;-57
2022/07/29 00:21:55;;;;;;;16.37;6.03;;;;;;;;;;3357146;42;20156;-58
2022/07/29 00:24:21;;;;;;;13.10;6.28;;;;;;;;;;3356231;42;20092;-58
2022/07/29 00:26:47;;;;;;;13.02;6.45;;;;;;;;;;3353021;42;20158;-59
2022/07/29 00:29:13;;;;;;;11.43;6.30;;;;;;;;;;3351938;42;20088;-59
2022/07/29 00:31:39;;;;;;;13.23;6.53;;;;;;;;;;3357597;42;20092;-59
2022/07/29 00:34:06;;;;;;;11.85;6.20;;;;;;;;;;3352375;42;20698;-57
2022/07/29 00:36:32;;;;;;;13.07;6.50;;;;;;;;;;3352303;42;20096;-58
2022/07/29 00:38:57;;;;;;;13.53;6.63;;;;;;;;;;3357104;42;20220;-58
2022/07/29 00:41:23;;;;;;;12.38;6.40;;;;;;;;;;3353791;42;20104;-58
2022/07/29 00:43:49;;;;;;;12.82;6.72;;;;;;;;;;3353536;42;20100;-59
2022/07/29 00:46:15;;;;;;;12.63;7.03;;;;;;;;;;3352934;42;20096;-59
2022/07/29 00:48:41;;;;;;;13.77;6.50;;;;;;;;;;3353561;42;20170;-59
2022/07/29 00:51:07;;;;;;;13.32;6.82;;;;;;;;;;3358100;42;20092;-59
2022/07/29 00:53:33;;;;;;;13.25;6.90;;;;;;;;;;3357004;42;20626;-58
2022/07/29 00:55:59;;;;;;;15.47;6.50;;;;;;;;;;3344979;42;20638;-59
2022/07/29 00:58:25;;;;;;;16.02;6.50;;;;;;;;;;3340750;42;20686;-59
2022/07/29 01:00:51;;;;;;;12.82;6.60;;;;;;;;;;3337908;42;20724;-60
2022/07/29 01:03:17;;;;;;;12.70;6.60;;;;;;;;;;3348781;42;20168;-58
2022/07/29 01:05:43;;;;;;;10.83;6.53;;;;;;;;;;3351938;42;20096;-58
2022/07/29 01:08:09;;;;;;;14.98;7.40;;;;;;;;;;3346495;42;20093;-59
2022/07/29 01:10:35;;;;;;;14.80;6.45;;;;;;;;;;3343871;42;20156;-59
2022/07/29 01:13:01;;;;;;;13.05;6.57;;;;;;;;;;3333185;42;20152;-59
2022/07/29 01:15:27;;;;;;;12.73;6.50;;;;;;;;;;3354576;42;20080;-59
2022/07/29 01:18:11;;;;;;;11.93;6.30;;;;;;;;;;3345945;42;20596;-59
2022/07/29 01:20:49;;;;;;;12.27;6.30;;;;;;;;;;3357600;42;20188;-59
2022/07/29 01:23:33;;;;;;;11.57;6.35;;;;;;;;;;3353529;42;20559;-59
2022/07/29 01:26:08;;;;;;;15.88;6.32;;;;;;;;;;3353854;42;20578;-59
2022/07/29 01:29:10;;;;;;;11.13;6.00;;;;;;;;;;3354377;42;20084;-59
2022/07/29 01:31:47;;;;;;;13.23;6.95;;;;;;;;;;3342316;42;20187;-58
2022/07/29 01:34:20;;;;;;;11.25;6.30;;;;;;;;;;3345020;42;20084;-64
2022/07/29 01:36:51;;;;;;;11.25;6.50;;;;;;;;;;3352906;42;20085;-57
2022/07/29 01:39:19;;;;;;;14.48;6.50;;;;;;;;;;3344162;42;20140;-57
2022/07/29 01:42:26;;;;;;;11.10;6.17;;;;;;;;;;3342619;42;20091;-58
2022/07/29 01:45:10;;;;;;;10.73;5.80;;;;;;;;;;3343358;42;20102;-59
2022/07/29 01:47:59;;;;;;;11.30;6.30;;;;;;;;;;3351676;42;20170;-59
2022/07/29 01:50:34;;;;;;;14.35;6.60;;;;;;;;;;3349232;42;20115;-57
2022/07/29 01:53:01;;;;;;;11.80;6.00;;;;;;;;;;3337472;42;20136;-58
2022/07/29 01:55:32;;;;;;;11.80;6.13;;;;;;;;;;3347877;42;20084;-56
2022/07/29 01:57:59;;;;;;;10.27;6.20;;;;;;;;;;3342644;42;20190;-58
2022/07/29 02:00:25;;;;;;;11.20;6.35;;;;;;;;;;3356069;42;20155;-56
2022/07/29 02:02:51;;;;;;;11.98;6.18;;;;;;;;;;3343261;42;20690;-58
2022/07/29 02:05:18;;;;;;;10.52;6.20;;;;;;;;;;3344675;42;20737;-58
2022/07/29 02:07:44;;;;;;;13.27;6.30;;;;;;;;;;3347718;42;20147;-57
2022/07/29 02:10:10;;;;;;;11.00;5.63;;;;;;;;;;3345111;42;20091;-58
2022/07/29 02:12:36;;;;;;;12.70;6.40;;;;;;;;;;3342099;42;20156;-58
2022/07/29 02:15:03;;;;;;;12.10;6.18;;;;;;;;;;3344415;42;20103;-58
2022/07/29 02:17:35;;;;;;;11.33;6.57;;;;;;;;;;3338804;42;20103;-60
2022/07/29 02:20:02;;;;;;;11.40;6.35;;;;;;;;;;3344489;42;20499;-56
2022/07/29 02:22:30;;;;;;;15.48;6.20;;;;;;;;;;3357069;42;20214;-57
2022/07/29 02:24:56;;;;;;;9.95;6.07;;;;;;;;;;3345481;42;20092;-58
2022/07/29 02:27:21;;;;;;;13.35;6.90;;;;;;;;;;3348647;42;20088;-59
2022/07/29 02:29:47;;;;;;;12.17;6.23;;;;;;;;;;3346137;42;20084;-58
2022/07/29 02:32:14;;;;;;;11.23;6.32;;;;;;;;;;3345477;42;20535;-57
2022/07/29 02:34:39;;;;;;;11.57;6.07;;;;;;;;;;3344046;42;20107;-58
2022/07/29 02:37:05;;;;;;;10.87;5.97;;;;;;;;;;3343489;42;20096;-58
2022/07/29 02:39:32;;;;;;;11.93;6.30;;;;;;;;;;3345082;42;20107;-57
2022/07/29 02:42:03;;;;;;;10.93;6.30;;;;;;;;;;3348641;42;20103;-58
2022/07/29 02:44:29;;;;;;;9.90;6.32;;;;;;;;;;3342736;42;20095;-58
2022/07/29 02:47:02;;;;;;;10.30;6.15;;;;;;;;;;3350312;42;20143;-57
2022/07/29 02:49:33;;;;;;;12.20;6.27;;;;;;;;;;3344511;42;20089;-56
2022/07/29 02:52:06;;;;;;;9.98;5.90;;;;;;;;;;3344343;42;20150;-63
2022/07/29 02:54:56;;;;;;;11.75;5.97;;;;;;;;;;3348590;42;20101;-58
2022/07/29 02:57:56;;;;;;;10.38;6.10;;;;;;;;;;3344044;42;20100;-55
2022/07/29 03:00:24;;;;;;;12.05;6.50;;;;;;;;;;3337877;42;20589;-57
2022/07/29 03:02:51;;;;;;;11.93;6.00;;;;;;;;;;3340591;42;20167;-57
2022/07/29 03:05:18;;;;;;;10.52;5.90;;;;;;;;;;3348005;42;20081;-57
2022/07/29 03:07:46;;;;;;;12.70;5.90;;;;;;;;;;3341596;42;20167;-57
2022/07/29 03:10:12;;;;;;;9.55;5.57;;;;;;;;;;3341487;42;20100;-56
2022/07/29 03:12:38;;;;;;;9.82;5.72;;;;;;;;;;3345633;42;20100;-58
2022/07/29 03:15:04;;;;;;;16.37;6.27;;;;;;;;;;3346646;42;20093;-56
2022/07/29 03:17:31;;;;;;;15.30;6.15;;;;;;;;;;3350180;42;20097;-58
2022/07/29 03:19:57;;;;;;;11.05;5.75;;;;;;;;;;3349885;42;20140;-58
2022/07/29 03:22:24;;;;;;;13.23;5.70;;;;;;;;;;3356643;42;20101;-58
2022/07/29 03:24:50;;;;;;;9.87;5.53;;;;;;;;;;3354381;42;20091;-56
2022/07/29 03:27:16;;;;;;;9.75;5.55;;;;;;;;;;3353187;42;20096;-55
2022/07/29 03:29:42;;;;;;;11.25;5.70;;;;;;;;;;3337162;42;20096;-58
2022/07/29 03:32:07;;;;;;;12.90;6.07;;;;;;;;;;3354584;42;20236;-57
2022/07/29 03:34:33;;;;;;;10.40;5.73;;;;;;;;;;3350426;42;20325;-56
2022/07/29 03:36:59;;;;;;;10.63;6.05;;;;;;;;;;3353828;42;20189;-57
2022/07/29 03:39:27;;;;;;;10.60;5.75;;;;;;;;;;3353116;42;20077;-58
2022/07/29 03:41:55;;;;;;;11.40;5.82;;;;;;;;;;3345974;42;20166;-59
2022/07/29 03:44:21;;;;;;;10.03;5.83;;;;;;;;;;3347634;42;20479;-58
2022/07/29 03:46:46;;;;;;;12.95;5.95;;;;;;;;;;3345699;42;20615;-57
2022/07/29 03:49:13;;;;;;;10.07;6.00;;;;;;;;;;3354145;42;20102;-58
2022/07/29 03:51:39;;;;;;;9.55;5.53;;;;;;;;;;3357240;42;20080;-57
2022/07/29 03:54:05;;;;;;;8.47;5.37;;;;;;;;;;3353865;42;20088;-59
2022/07/29 03:56:32;;;;;;;12.10;6.03;;;;;;;;;;3341687;42;20562;-60
2022/07/29 03:58:58;;;;;;;9.55;5.25;;;;;;;;;;3346360;42;20092;-58
2022/07/29 04:01:24;;;;;;;10.48;5.65;;;;;;;;;;3344809;42;20160;-59
2022/07/29 04:03:51;;;;;;;9.00;5.37;;;;;;;;;;3347083;42;20096;-59
2022/07/29 04:06:17;;;;;;;11.30;5.22;;;;;;;;;;3344893;42;20112;-56
2022/07/29 04:08:43;;;;;;;11.52;5.63;;;;;;;;;;3358185;42;20092;-57
2022/07/29 04:11:09;;;;;;;10.38;5.95;;;;;;;;;;3340988;42;20101;-55
2022/07/29 04:13:34;;;;;;;10.23;5.70;;;;;;;;;;3349603;42;20546;-55
2022/07/29 04:16:00;;;;;;;11.30;5.95;;;;;;;;;;3352626;42;20118;-56
2022/07/29 04:18:26;;;;;;;9.50;5.38;;;;;;;;;;3355655;42;20114;-58
2022/07/29 04:20:52;;;;;;;9.73;5.70;;;;;;;;;;3347154;42;20888;-58
2022/07/29 04:23:18;;;;;;;11.15;6.00;;;;;;;;;;3354488;42;20100;-57
2022/07/29 04:25:44;;;;;;;9.45;5.82;;;;;;;;;;3343255;42;20072;-56
2022/07/29 04:28:10;;;;;;;8.77;5.30;;;;;;;;;;3357528;42;20555;-56
2022/07/29 04:30:37;;;;;;;10.23;5.50;;;;;;;;;;3349650;42;20101;-57
2022/07/29 04:33:04;;;;;;;10.10;5.53;;;;;;;;;;3346865;42;20152;-56
2022/07/29 04:35:30;;;;;;;10.25;6.05;;;;;;;;;;3353942;42;20080;-58
2022/07/29 04:37:56;;;;;;;8.60;5.43;;;;;;;;;;3352601;42;20096;-58
2022/07/29 04:40:22;;;;;;;11.77;5.40;;;;;;;;;;3353461;42;20140;-61
2022/07/29 04:42:48;;;;;;;9.50;5.78;;;;;;;;;;3353830;42;20140;-56
2022/07/29 04:45:14;;;;;;;10.00;5.60;;;;;;;;;;3354690;42;20567;-57
2022/07/29 04:47:40;;;;;;;9.48;5.47;;;;;;;;;;3353541;42;20103;-59
2022/07/29 04:50:08;;;;;;;10.65;5.60;;;;;;;;;;3348166;42;20084;-57
2022/07/29 04:52:34;;;;;;;12.60;5.77;;;;;;;;;;3354787;42;20096;-57
2022/07/29 04:55:01;;;;;;;10.32;5.47;;;;;;;;;;3342538;42;20124;-58
2022/07/29 04:57:27;;;;;;;10.65;5.70;;;;;;;;;;3353526;42;20096;-57
2022/07/29 04:59:53;;;;;;;10.40;5.78;;;;;;;;;;3353572;42;20103;-57
2022/07/29 05:02:19;;;;;;;9.30;5.33;;;;;;;;;;3358019;42;20085;-57
2022/07/29 05:04:45;;;;;;;10.63;5.93;;;;;;;;;;3358045;42;20088;-58
2022/07/29 05:07:11;;;;;;;9.68;5.70;;;;;;;;;;3357045;42;20092;-58
2022/07/29 05:09:37;;;;;;;10.77;5.80;;;;;;;;;;3353966;42;20178;-58
2022/07/29 05:12:03;;;;;;;10.18;5.75;;;;;;;;;;3354311;42;20140;-58
2022/07/29 05:14:29;;;;;;;10.65;5.60;;;;;;;;;;3353888;42;20084;-57
2022/07/29 05:16:56;;;;;;;10.07;6.00;;;;;;;;;;3353197;42;20100;-57
2022/07/29 05:19:23;;;;;;;13.17;5.83;;;;;;;;;;3351937;42;20097;-58
2022/07/29 05:21:49;;;;;;;8.73;5.50;;;;;;;;;;3354729;42;20551;-58
2022/07/29 05:24:16;;;;;;;10.82;5.63;;;;;;;;;;3349605;42;20493;-57
2022/07/29 05:26:41;;;;;;;12.23;5.80;;;;;;;;;;3361483;42;20098;-58
2022/07/29 05:29:08;;;;;;;9.80;6.18;;;;;;;;;;3359430;42;20555;-57
2022/07/29 05:31:34;;;;;;;11.63;6.00;;;;;;;;;;3350853;42;20135;-57
2022/07/29 05:34:00;;;;;;;8.75;5.88;;;;;;;;;;3360629;42;20107;-57
2022/07/29 05:36:26;;;;;;;10.40;5.75;;;;;;;;;;3360683;42;20114;-58
2022/07/29 05:38:52;;;;;;;10.05;5.60;;;;;;;;;;3360831;42;20096;-59
2022/07/29 05:41:21;;;;;;;10.48;6.28;;;;;;;;;;3361239;42;20095;-58
2022/07/29 05:43:47;;;;;;;10.27;6.07;;;;;;;;;;3360041;42;20095;-58
2022/07/29 05:46:13;;;;;;;9.65;5.60;;;;;;;;;;3349361;42;20095;-59
2022/07/29 05:48:39;;;;;;;11.63;5.70;;;;;;;;;;3360618;42;20106;-59
2022/07/29 05:51:05;;;;;;;9.43;5.50;;;;;;;;;;3360773;42;20111;-59
2022/07/29 05:53:31;;;;;;;11.37;5.57;;;;;;;;;;3362132;42;20095;-56
2022/07/29 05:55:57;;;;;;;8.63;5.60;;;;;;;;;;3361408;42;20558;-58
2022/07/29 05:58:23;;;;;;;10.18;5.68;;;;;;;;;;3361690;42;20096;-57
2022/07/29 06:00:49;;;;;;;10.88;5.30;;;;;;;;;;3357879;42;20103;-59
2022/07/29 06:03:15;;;;;;;9.83;5.30;;;;;;;;;;3359422;42;20365;-58
2022/07/29 06:05:41;;;;;;;10.02;5.63;;;;;;;;;;3360023;42;20579;-58
2022/07/29 06:08:07;;;;;;;9.18;5.40;;;;;;;;;;3360682;42;20164;-58
2022/07/29 06:10:34;;;;;;;9.20;5.55;;;;;;;;;;3359609;42;20096;-58
2022/07/29 06:13:00;;;;;;;9.50;5.30;;;;;;;;;;3359985;42;20663;-58
2022/07/29 06:15:26;;;;;;;9.00;4.97;;;;;;;;;;3349116;42;20120;-58
2022/07/29 06:17:52;;;;;;;11.43;5.35;;;;;;;;;;3350657;42;20148;-57
2022/07/29 06:20:19;;;;;;;8.82;5.05;;;;;;;;;;3358352;42;20099;-59
2022/07/29 06:22:45;;;;;;;8.87;5.10;;;;;;;;;;3354271;42;20088;-56
2022/07/29 06:25:11;;;;;;;9.35;5.03;;;;;;;;;;3353596;42;20099;-58
2022/07/29 06:27:37;;;;;;;10.45;5.15;;;;;;;;;;3358167;42;20155;-55
2022/07/29 06:30:06;;;;;;;9.32;5.03;;;;;;;;;;3353148;42;20147;-58
2022/07/29 06:32:32;;;;;;;8.27;5.00;;;;;;;;;;3358234;42;20158;-59
2022/07/29 06:34:58;;;;;;;8.98;4.57;;;;;;;;;;3351215;42;20151;-59
2022/07/29 06:37:24;;;;;;;8.60;5.07;;;;;;;;;;3354766;42;20155;-60
2022/07/29 06:40:59;;;;;;;10.52;5.00;;;;;;;;;;3358063;42;20088;-57
2022/07/29 06:42:43;;;;;;;9.73;4.57;;;;;;;;;;3355794;42;20096;-57
2022/07/29 06:45:10;;;;;;;9.70;4.90;;;;;;;;;;3352624;42;20192;-57
2022/07/29 06:47:36;;;;;;;8.45;4.72;;;;;;;;;;3353670;42;20100;-57
2022/07/29 06:50:02;;;;;;;9.00;4.65;;;;;;;;;;3354406;42;20084;-57
2022/07/29 06:52:29;;;;;;;8.25;4.72;;;;;;;;;;3355702;42;20129;-58
2022/07/29 06:54:55;;;;;;;7.80;4.60;;;;;;;;;;3347474;42;20088;-59
2022/07/29 06:57:21;;;;;;;10.27;5.00;;;;;;;;;;3353258;42;20541;-59
2022/07/29 06:59:47;;;;;;;11.23;5.47;;;;;;;;;;3346005;42;20096;-56
2022/07/29 07:02:14;;;;;;;9.15;4.93;;;;;;;;;;3349646;42;20103;-58
2022/07/29 07:04:39;;;;;;;8.95;4.80;;;;;;;;;;3352662;42;20093;-59
2022/07/29 07:07:05;;;;;;;11.20;4.80;;;;;;;;;;3353669;42;20084;-58
2022/07/29 07:09:32;;;;;;;8.50;4.85;;;;;;;;;;3354832;42;20143;-57
2022/07/29 07:11:58;;;;;;;11.30;5.18;;;;;;;;;;3355176;42;20601;-59
2022/07/29 07:14:26;;;;;;;10.13;5.50;;;;;;;;;;3356061;42;20136;-58
2022/07/29 07:16:52;;;;;;;12.03;5.10;;;;;;;;;;3354957;42;20139;-60
2022/07/29 07:19:19;;;;;;;10.20;5.30;;;;;;;;;;3358511;42;20088;-59
2022/07/29 07:21:44;;;;;;;9.43;5.80;;;;;;;;;;3353896;42;20201;-58
2022/07/29 07:24:10;;;;;;;8.85;5.47;;;;;;;;;;3354093;42;20100;-58
2022/07/29 07:26:37;;;;;;;9.93;5.40;;;;;;;;;;3351246;42;20126;-58
2022/07/29 07:29:03;;;;;;;9.82;4.90;;;;;;;;;;3354957;42;20160;-56
2022/07/29 07:31:29;;;;;;;10.23;5.30;;;;;;;;;;3351903;42;20083;-58
2022/07/29 07:33:55;;;;;;;10.20;5.25;;;;;;;;;;3353345;42;20597;-55
2022/07/29 07:36:21;;;;;;;10.10;5.40;;;;;;;;;;3354153;42;20606;-59
2022/07/29 07:38:47;;;;;;;9.00;5.20;;;;;;;;;;3354164;42;20100;-63
2022/07/29 07:41:13;;;;;;;10.27;5.38;;;;;;;;;;3353903;42;20177;-57
2022/07/29 07:43:39;;;;;;;9.43;5.55;;;;;;;;;;3357280;42;20103;-57
2022/07/29 07:46:05;;;;;;;12.23;5.17;;;;;;;;;;3344346;42;20099;-60
2022/07/29 07:48:31;;;;;;;10.25;5.70;;;;;;;;;;3354371;42;20149;-58
2022/07/29 07:50:57;;;;;;;9.45;5.50;;;;;;;;;;3357919;42;20127;-58
2022/07/29 07:53:23;;;;;;;9.13;5.22;;;;;;;;;;3362523;42;20119;-57
2022/07/29 07:55:49;;;;;;;9.00;5.07;;;;;;;;;;3356900;42;20104;-58
2022/07/29 07:58:15;;;;;;;9.68;5.28;;;;;;;;;;3357738;42;20150;-57
2022/07/29 08:00:41;;;;;;;8.90;5.18;;;;;;;;;;3359956;42;20559;-58
2022/07/29 08:03:08;;;;;;;10.15;5.32;;;;;;;;;;3360402;42;20151;-59
2022/07/29 08:05:35;;;;;;;11.17;5.80;;;;;;;;;;3360570;42;20088;-59
2022/07/29 08:08:01;;;;;;;9.55;5.47;;;;;;;;;;3353909;42;20166;-58
2022/07/29 08:13:12;;;;;;;11.13;6.18;;;;;;;;;;3358473;42;20088;-59
2022/07/29 08:15:38;;;;;;;10.07;5.80;;;;;;;;;;3356519;42;20092;-57
2022/07/29 08:18:04;;;;;;;11.90;6.20;;;;;;;;;;3360043;42;20292;-59
2022/07/29 08:20:32;;;;;;;11.10;5.78;;;;;;;;;;3363337;42;20475;-59
2022/07/29 08:22:59;;;;;;;9.40;5.85;;;;;;;;;;3361858;42;20107;-58
2022/07/29 08:25:25;;;;;;;11.23;5.93;;;;;;;;;;3359487;42;20166;-60
2022/07/29 08:27:51;;;;;;;9.68;5.80;;;;;;;;;;3360619;42;20092;-58
2022/07/29 08:30:17;;;;;;;10.73;6.00;;;;;;;;;;3360914;42;20171;-58
2022/07/29 08:32:43;;;;;;;10.90;5.68;;;;;;;;;;3358986;42;20092;-59
2022/07/29 08:35:09;;;;;;;9.40;5.65;;;;;;;;;;3343177;42;20152;-58
2022/07/29 08:37:35;;;;;;;11.53;6.57;;;;;;;;;;3357142;42;20092;-59
2022/07/29 08:40:00;;;;;;;10.48;5.60;;;;;;;;;;3348907;42;20607;-58
2022/07/29 08:42:26;;;;;;;10.60;5.63;;;;;;;;;;3352434;42;20638;-57
2022/07/29 08:44:53;;;;;;;11.23;5.77;;;;;;;;;;3355175;42;20158;-58
2022/07/29 08:47:19;;;;;;;13.17;6.43;;;;;;;;;;3357381;42;20334;-59
2022/07/29 08:49:46;;;;;;;11.98;6.10;;;;;;;;;;3356243;42;20092;-59
2022/07/29 08:52:12;;;;;;;11.25;5.75;;;;;;;;;;3354123;42;20172;-58
2022/07/29 08:54:39;;;;;;;12.15;6.15;;;;;;;;;;3346846;42;20115;-55
2022/07/29 08:57:05;;;;;;;12.43;6.43;;;;;;;;;;3344017;42;20081;-58
2022/07/29 08:59:31;;;;;;;11.20;6.32;;;;;;;;;;3352980;42;20350;-58
2022/07/29 09:01:59;;;;;;;11.05;6.45;;;;;;;;;;3348517;42;20162;-59
2022/07/29 09:04:25;;;;;;;11.50;6.13;;;;;;;;;;3348560;42;20115;-58
2022/07/29 09:06:51;;;;;;;12.10;5.97;;;;;;;;;;3345381;42;20096;-58
2022/07/29 09:09:17;;;;;;;11.32;5.68;;;;;;;;;;3361533;42;20091;-58
2022/07/29 09:11:43;;;;;;;10.43;5.55;;;;;;;;;;3359698;42;20114;-58
2022/07/29 09:14:11;;;;;;;12.60;5.25;;;;;;;;;;3344192;42;20158;-57
2022/07/29 09:16:47;;;;;;;10.65;5.65;;;;;;;;;;3343311;42;20553;-57
2022/07/29 09:19:23;;;;;;;11.40;5.67;;;;;;;;;;3352378;42;20766;-56
2022/07/29 09:21:58;;;;;;;14.32;5.60;;;;;;;;;;3356651;42;20132;-58
2022/07/29 09:24:44;;;;;;;10.73;5.85;;;;;;;;;;3344580;42;20096;-56
2022/07/29 09:27:25;;;;;;;11.88;5.60;;;;;;;;;;3348640;42;20095;-57
2022/07/29 09:30:05;;;;;;;13.05;6.90;;;;;;;;;;3357542;42;20606;-56
2022/07/29 09:32:32;;;;;;;13.40;6.40;;;;;;;;;;3357989;42;20143;-57
2022/07/29 09:35:21;;;;;;;11.35;6.43;;;;;;;;;;3357059;42;20549;-57
2022/07/29 09:37:47;;;;;;;11.07;6.85;;;;;;;;;;3348458;42;20096;-58
2022/07/29 09:40:17;;;;;;;10.18;5.95;;;;;;;;;;3357495;42;20837;-56
2022/07/29 09:42:44;;;;;;;10.75;5.97;;;;;;;;;;3352415;42;20097;-58
2022/07/29 09:45:11;;;;;;;10.53;5.80;;;;;;;;;;3344497;42;20080;-59
2022/07/29 09:47:41;;;;;;;11.88;5.57;;;;;;;;;;3348791;42;20103;-57
2022/07/29 09:50:07;;;;;;;10.05;5.80;;;;;;;;;;3351743;42;20156;-59
2022/07/29 09:52:48;;;;;;;10.98;6.05;;;;;;;;;;3354259;42;20131;-58
2022/07/29 09:55:14;;;;;;;14.00;6.88;;;;;;;;;;3350287;42;20099;-57
2022/07/29 09:57:40;;;;;;;11.53;6.73;;;;;;;;;;3352561;42;20131;-59
2022/07/29 10:00:12;;;;;;;10.73;6.38;;;;;;;;;;3350209;42;20147;-60
2022/07/29 10:02:39;;;;;;;13.80;6.57;;;;;;;;;;3353354;42;20222;-58
2022/07/29 10:05:27;;;;;;;11.55;6.50;;;;;;;;;;3343295;42;20119;-59
2022/07/29 10:07:55;;;;;;;12.00;6.65;;;;;;;;;;3357048;42;20080;-63
2022/07/29 10:10:23;;;;;;;12.77;6.40;;;;;;;;;;3351595;42;20095;-60
2022/07/29 10:13:00;;;;;;;12.35;6.22;;;;;;;;;;3351794;42;20093;-59
2022/07/29 10:15:28;;;;;;;11.10;6.00;;;;;;;;;;3343227;42;20089;-57
2022/07/29 10:17:54;;;;;;;11.05;6.20;;;;;;;;;;3352179;42;20193;-58
2022/07/29 10:20:21;;;;;;;10.50;6.18;;;;;;;;;;3348447;42;20096;-57
2022/07/29 10:22:48;;;;;;;12.20;6.70;;;;;;;;;;3352253;42;20131;-58
2022/07/29 10:25:14;;;;;;;12.75;6.45;;;;;;;;;;3355051;42;20097;-58
2022/07/29 10:27:40;;;;;;;14.07;6.50;;;;;;;;;;3352763;42;20088;-58
2022/07/29 10:30:06;;;;;;;13.57;6.38;;;;;;;;;;3348183;42;20569;-58
2022/07/29 10:33:09;;;;;;;13.02;6.72;;;;;;;;;;3354242;42;20092;-58
2022/07/29 10:35:58;;;;;;;13.53;6.37;;;;;;;;;;3349036;42;20073;-60
2022/07/29 10:38:49;;;;;;;13.18;6.38;;;;;;;;;;3348696;42;20200;-59
2022/07/29 10:41:34;;;;;;;11.73;6.32;;;;;;;;;;3351931;42;20551;-60
2022/07/29 10:44:08;;;;;;;13.95;6.30;;;;;;;;;;3347467;42;20095;-59
2022/07/29 10:46:38;;;;;;;12.45;6.20;;;;;;;;;;3354978;42;20196;-57
2022/07/29 10:49:17;;;;;;;11.40;6.67;;;;;;;;;;3350525;42;20127;-58
2022/07/29 10:52:06;;;;;;;11.68;6.75;;;;;;;;;;3345535;42;20089;-59
2022/07/29 10:54:43;;;;;;;12.25;6.88;;;;;;;;;;3352568;42;20099;-60
2022/07/29 10:57:25;;;;;;;12.05;6.30;;;;;;;;;;3340885;42;20085;-59
2022/07/29 11:00:00;;;;;;;11.57;6.30;;;;;;;;;;3346861;42;20095;-59
2022/07/29 11:02:35;;;;;;;11.40;6.30;;;;;;;;;;3353491;42;21195;-58
2022/07/29 11:05:06;;;;;;;17.60;7.07;;;;;;;;;;3353190;42;20168;-56
2022/07/29 11:07:34;;;;;;;13.13;6.65;;;;;;;;;;3343095;42;20505;-57
2022/07/29 11:10:15;;;;;;;12.95;7.07;;;;;;;;;;3358106;42;20092;-59
2022/07/29 11:12:41;;;;;;;11.43;6.45;;;;;;;;;;3356486;42;20088;-55
2022/07/29 11:15:18;;;;;;;13.60;6.87;;;;;;;;;;3350583;42;20081;-56
2022/07/29 11:17:53;;;;;;;13.73;7.25;;;;;;;;;;3346410;42;20103;-59
2022/07/29 11:20:45;;;;;;;12.43;6.88;;;;;;;;;;3356012;42;20095;-59
2022/07/29 11:23:24;;;;;;;11.13;6.50;;;;;;;;;;3355555;42;20910;-59
2022/07/29 11:26:12;;;;;;;13.77;6.70;;;;;;;;;;3354401;42;20575;-58
2022/07/29 11:28:52;;;;;;;13.68;6.75;;;;;;;;;;3351531;42;20077;-59
2022/07/29 11:31:50;;;;;;;12.57;6.70;;;;;;;;;;3354518;42;20136;-60
2022/07/29 11:34:36;;;;;;;12.40;6.72;;;;;;;;;;3348119;42;20148;-57
2022/07/29 11:37:12;;;;;;;11.80;6.88;;;;;;;;;;3355820;42;20586;-54
2022/07/29 11:39:38;;;;;;;15.07;6.70;;;;;;;;;;3353711;42;20108;-56
2022/07/29 11:42:20;;;;;;;13.32;7.00;;;;;;;;;;3354999;42;20096;-57
2022/07/29 11:45:10;;;;;;;14.80;7.50;;;;;;;;;;3357460;42;20179;-56
2022/07/29 11:47:38;;;;;;;13.55;6.78;;;;;;;;;;3354962;42;20101;-59
2022/07/29 11:50:06;;;;;;;11.90;6.65;;;;;;;;;;3355815;42;20167;-57
2022/07/29 11:52:50;;;;;;;12.27;6.73;;;;;;;;;;3354643;42;20080;-60
2022/07/29 11:55:18;;;;;;;13.57;7.22;;;;;;;;;;3354285;42;20084;-58
2022/07/29 11:57:52;;;;;;;15.27;7.90;;;;;;;;;;3358167;42;20096;-56
2022/07/29 12:00:26;;;;;;;14.38;6.97;;;;;;;;;;3353745;42;20598;-57
2022/07/29 12:02:52;;;;;;;12.35;6.60;;;;;;;;;;3348713;42;20152;-59
2022/07/29 12:05:19;;;;;;;12.60;7.07;;;;;;;;;;3343691;42;20100;-57
2022/07/29 12:07:45;;;;;;;13.20;7.22;;;;;;;;;;3357448;42;20088;-57
2022/07/29 12:10:11;;;;;;;13.57;7.60;;;;;;;;;;3357956;42;20088;-57
2022/07/29 12:12:38;;;;;;;12.05;6.70;;;;;;;;;;3342200;42;20155;-59
2022/07/29 12:15:19;;;;;;;14.52;7.00;;;;;;;;;;3344972;42;20569;-59
2022/07/29 12:17:46;;;;;;;12.17;6.63;;;;;;;;;;3355076;42;20100;-57
2022/07/29 12:20:12;;;;;;;11.60;6.50;;;;;;;;;;3354911;42;20483;-58
2022/07/29 12:22:43;;;;;;;13.73;6.80;;;;;;;;;;3347195;42;20091;-62
2022/07/29 12:25:15;;;;;;;13.05;6.45;;;;;;;;;;3357725;42;20094;-63
2022/07/29 12:27:43;;;;;;;13.25;6.90;;;;;;;;;;3344126;42;20218;-63
2022/07/29 12:30:10;;;;;;;13.27;6.73;;;;;;;;;;3343717;42;20100;-63
2022/07/29 12:32:38;;;;;;;14.32;6.32;;;;;;;;;;3353482;42;20615;-64
2022/07/29 12:35:09;;;;;;;16.35;7.20;;;;;;;;;;3352489;42;20092;-61
2022/07/29 12:37:36;;;;;;;12.65;6.65;;;;;;;;;;3344073;42;20372;-61
2022/07/29 12:40:03;;;;;;;14.13;7.05;;;;;;;;;;3341923;42;20571;-61
2022/07/29 12:42:29;;;;;;;12.13;6.27;;;;;;;;;;3353521;42;20092;-60
2022/07/29 12:44:55;;;;;;;12.68;6.60;;;;;;;;;;3348458;42;20102;-61
2022/07/29 12:47:21;;;;;;;13.05;7.20;;;;;;;;;;3357336;42;20562;-61
2022/07/29 12:49:47;;;;;;;14.38;7.53;;;;;;;;;;3357557;42;20147;-59
2022/07/29 12:52:24;;;;;;;14.70;7.03;;;;;;;;;;3348968;42;20133;-62
2022/07/29 12:54:50;;;;;;;15.07;7.50;;;;;;;;;;3349349;42;20162;-60
2022/07/29 12:57:16;;;;;;;16.42;7.05;;;;;;;;;;3357703;42;20108;-62
2022/07/29 12:59:42;;;;;;;12.40;7.40;;;;;;;;;;3357888;42;20091;-60
2022/07/29 13:02:22;;;;;;;13.90;7.60;;;;;;;;;;3357893;42;20084;-61
2022/07/29 13:05:00;;;;;;;15.80;7.82;;;;;;;;;;3342301;42;20219;-63
2022/07/29 13:07:31;;;;;;;13.00;7.15;;;;;;;;;;3348885;42;20589;-61
2022/07/29 13:10:17;;;;;;;12.52;7.10;;;;;;;;;;3357410;42;20091;-62
2022/07/29 13:13:03;;;;;;;15.23;6.93;;;;;;;;;;3357973;42;20222;-62
2022/07/29 13:15:29;;;;;;;12.90;6.60;;;;;;;;;;3357928;42;20534;-61
2022/07/29 13:17:55;;;;;;;12.75;6.65;;;;;;;;;;3357629;42;20343;-61
2022/07/29 13:20:24;;;;;;;11.88;6.80;;;;;;;;;;3357564;42;20267;-62
2022/07/29 13:22:50;;;;;;;11.88;6.60;;;;;;;;;;3349637;42;20109;-62
2022/07/29 13:25:27;;;;;;;12.70;6.30;;;;;;;;;;3350111;42;20093;-62
2022/07/29 13:27:54;;;;;;;12.63;6.57;;;;;;;;;;3348726;42;20548;-61
2022/07/29 13:30:20;;;;;;;12.30;6.60;;;;;;;;;;3348577;42;20511;-64
